Time;durP1;ratioP1;P1;durP2;ratioP2;P2;SDS_P1;SDS_P2;PMS_P1;PMS_P2;Temp;Humidity;BMP_temperature;BMP_pressure;BME280_temperature;BME280_humidity;BME280_pressure;Samples;Min_cycle;Max_cycle;Signal;HPM_P1;HPM_P2
2022/12/17 13:06:40;;;;;;;22.10;18.87;;;;;;;-2.84;89.25;97782.38;4973511;28;20550;-71
2022/12/17 13:09:20;;;;;;;22.67;18.20;;;;;;;-2.75;88.56;97788.84;5016842;28;20534;-72
2022/12/17 13:11:49;;;;;;;23.37;18.90;;;;;;;-2.80;89.15;97783.88;4981519;28;20836;-73
2022/12/17 13:14:20;;;;;;;25.57;19.40;;;;;;;-2.80;88.36;97794.25;5016696;28;20223;-69
2022/12/17 13:16:52;;;;;;;27.07;18.57;;;;;;;-2.84;88.48;97802.28;5024289;28;20325;-73
2022/12/17 13:19:33;;;;;;;23.53;17.93;;;;;;;-2.84;89.11;97802.28;5022662;28;20331;-70
2022/12/17 13:22:27;;;;;;;25.83;21.95;;;;;;;-2.79;89.83;97801.13;4974535;28;20481;-72
2022/12/17 13:24:56;;;;;;;21.30;18.80;;;;;;;-2.74;89.95;97803.47;5029731;28;20227;-73
2022/12/17 13:27:30;;;;;;;23.40;18.70;;;;;;;-2.82;90.25;97798.69;4996128;28;20212;-70
2022/12/17 13:29:59;;;;;;;24.80;18.30;;;;;;;-2.88;90.35;97808.56;5005525;28;20525;-72
2022/12/17 13:32:29;;;;;;;24.70;20.43;;;;;;;-2.92;90.35;97808.72;5017247;28;20739;-73
2022/12/17 13:35:06;;;;;;;26.90;19.93;;;;;;;-2.90;91.68;97813.84;5025027;28;20223;-70
2022/12/17 13:37:43;;;;;;;21.37;17.93;;;;;;;-2.94;91.60;97818.34;4978500;28;20242;-71
2022/12/17 13:40:22;;;;;;;23.07;19.40;;;;;;;-2.97;92.11;97812.53;4974023;28;20223;-72
2022/12/17 13:42:50;;;;;;;24.13;17.63;;;;;;;-2.98;91.93;97821.22;5030911;28;21161;-73
2022/12/17 13:45:22;;;;;;;23.10;17.47;;;;;;;-3.10;93.30;97823.53;5005965;28;20511;-73
2022/12/17 13:47:54;;;;;;;22.40;19.00;;;;;;;-3.09;94.04;97826.97;5028265;28;20207;-70
2022/12/17 13:50:24;;;;;;;21.43;18.93;;;;;;;-3.21;94.22;97820.69;5006264;28;20246;-73
2022/12/17 13:53:10;;;;;;;20.07;17.77;;;;;;;-3.21;93.65;97837.09;5022587;28;20255;-70
2022/12/17 13:55:38;;;;;;;20.27;16.97;;;;;;;-3.18;94.99;97836.06;4979361;28;20207;-72
2022/12/17 13:58:05;;;;;;;23.17;17.93;;;;;;;-3.28;94.84;97842.66;5023012;28;20203;-72
2022/12/17 14:00:33;;;;;;;27.30;19.80;;;;;;;-3.22;94.79;97847.53;5026984;28;20207;-71
2022/12/17 14:03:10;;;;;;;21.47;17.70;;;;;;;-3.27;96.50;97842.56;5030454;28;20470;-70
2022/12/17 14:05:41;;;;;;;25.43;18.27;;;;;;;-3.27;96.71;97852.94;5008819;28;20274;-72
2022/12/17 14:08:14;;;;;;;22.57;18.40;;;;;;;-3.39;96.60;97859.63;5023974;28;20377;-72
2022/12/17 14:12:20;;;;;;;26.10;17.67;;;;;;;-3.51;96.86;97861.09;5030496;28;20828;-73
2022/12/17 14:13:40;;;;;;;26.43;20.70;;;;;;;-3.50;97.83;97862.78;5029962;28;20230;-73
2022/12/17 14:16:07;;;;;;;23.90;19.50;;;;;;;-3.58;98.52;97866.66;5025185;28;20208;-72
2022/12/17 14:18:36;;;;;;;25.80;20.33;;;;;;;-3.63;99.08;97870.31;5030833;28;20776;-72
2022/12/17 14:21:05;;;;;;;28.20;21.97;;;;;;;-3.68;99.69;97869.72;5006551;28;20434;-70
2022/12/17 14:23:34;;;;;;;28.63;23.83;;;;;;;-3.68;100.00;97877.50;5030803;28;20562;-71
2022/12/17 14:26:02;;;;;;;25.73;21.77;;;;;;;-3.77;100.00;97875.38;4991892;28;20208;-71
2022/12/17 14:28:31;;;;;;;32.57;24.27;;;;;;;-3.86;100.00;97875.81;5028094;28;20482;-73
2022/12/17 14:31:06;;;;;;;31.60;24.67;;;;;;;-3.87;100.00;97881.91;5026651;28;20219;-71
2022/12/17 14:34:06;;;;;;;26.93;22.40;;;;;;;-3.96;100.00;97883.22;5030051;28;20511;-71
2022/12/17 14:36:34;;;;;;;29.10;22.73;;;;;;;-4.03;100.00;97885.25;5009972;28;20217;-71
2022/12/17 14:39:09;;;;;;;28.73;24.97;;;;;;;-4.11;100.00;97884.81;5025857;28;20593;-71
2022/12/17 14:44:26;;;;;;;26.10;22.00;;;;;;;-4.21;100.00;97903.34;5015834;28;20985;-72
2022/12/17 14:47:06;;;;;;;31.93;23.17;;;;;;;-4.33;100.00;97898.78;5027641;28;20457;-71
2022/12/17 14:49:34;;;;;;;28.27;21.50;;;;;;;-4.44;100.00;97895.88;5032095;28;20211;-71
2022/12/17 14:52:12;;;;;;;26.70;21.47;;;;;;;-4.47;100.00;97901.19;5006573;28;20224;-70
2022/12/17 14:54:46;;;;;;;28.83;22.23;;;;;;;-4.67;100.00;97893.44;5025295;28;20223;-73
2022/12/17 14:57:21;;;;;;;28.20;22.23;;;;;;;-4.78;100.00;97900.00;5029021;28;20450;-72
2022/12/17 14:59:51;;;;;;;26.87;22.90;;;;;;;-4.96;100.00;97900.78;4986108;28;20992;-70
2022/12/17 15:02:24;;;;;;;26.30;21.70;;;;;;;-5.10;100.00;97903.97;5028237;28;20226;-72
2022/12/17 15:04:54;;;;;;;25.20;21.63;;;;;;;-5.25;100.00;97904.66;5027411;28;20548;-70
2022/12/17 15:07:24;;;;;;;26.80;22.47;;;;;;;-5.32;100.00;97917.00;5028512;28;20402;-73
2022/12/17 15:09:54;;;;;;;29.23;23.63;;;;;;;-5.39;100.00;97915.59;5009036;28;20834;-70
2022/12/17 15:12:23;;;;;;;29.20;23.23;;;;;;;-5.54;100.00;97923.06;5030262;28;20481;-73
2022/12/17 15:14:51;;;;;;;33.20;23.70;;;;;;;-5.63;100.00;97928.63;4980431;28;20907;-71
2022/12/17 15:17:18;;;;;;;31.70;23.40;;;;;;;-5.76;100.00;97933.47;5027365;28;20606;-71
2022/12/17 15:19:46;;;;;;;26.47;21.43;;;;;;;-5.89;100.00;97927.13;5028666;28;20450;-71
2022/12/17 15:22:22;;;;;;;32.60;23.17;;;;;;;-6.00;100.00;97938.75;5023007;28;20747;-72
2022/12/17 15:24:49;;;;;;;32.20;26.27;;;;;;;-6.07;100.00;97934.72;5008907;28;20473;-70
2022/12/17 15:27:18;;;;;;;31.90;27.17;;;;;;;-6.08;100.00;97947.72;5027665;28;21178;-73
2022/12/17 15:29:46;;;;;;;32.70;25.77;;;;;;;-6.07;100.00;97947.63;4986025;28;20458;-71
2022/12/17 15:32:17;;;;;;;39.20;29.17;;;;;;;-6.13;100.00;97951.31;5023220;28;20220;-72
2022/12/17 15:34:45;;;;;;;44.73;32.33;;;;;;;-6.14;100.00;97946.19;5027637;28;20469;-70
2022/12/17 15:37:13;;;;;;;52.57;38.50;;;;;;;-6.18;100.00;97953.25;5025995;28;20557;-71
2022/12/17 15:39:41;;;;;;;46.13;37.17;;;;;;;-6.18;100.00;97949.81;5009291;28;20997;-72
2022/12/17 15:44:55;;;;;;;53.90;39.60;;;;;;;-6.19;100.00;97963.59;4984398;28;20484;-71
2022/12/17 15:47:23;;;;;;;50.37;40.23;;;;;;;-6.22;100.00;97971.47;5022481;28;20463;-72
2022/12/17 15:49:50;;;;;;;46.90;37.30;;;;;;;-6.31;100.00;97965.78;5027754;28;20453;-72
2022/12/17 15:52:19;;;;;;;41.87;34.30;;;;;;;-6.37;100.00;97966.00;4973490;28;20799;-71
2022/12/17 15:54:48;;;;;;;43.53;33.97;;;;;;;-6.40;100.00;97966.13;5025413;28;20815;-72
2022/12/17 15:57:15;;;;;;;44.33;32.27;;;;;;;-6.50;100.00;97968.22;5030280;28;20447;-72
2022/12/17 15:59:45;;;;;;;35.57;27.87;;;;;;;-6.51;100.00;97978.56;5025897;28;20522;-73
2022/12/17 16:02:14;;;;;;;37.37;31.00;;;;;;;-6.60;100.00;97969.47;5029694;28;20441;-72
2022/12/17 16:04:42;;;;;;;44.80;35.47;;;;;;;-6.63;100.00;97969.56;5027607;28;20543;-73
2022/12/17 16:07:10;;;;;;;39.47;32.33;;;;;;;-6.72;100.00;97971.59;4983184;28;20754;-72
2022/12/17 16:09:37;;;;;;;39.90;34.00;;;;;;;-6.79;100.00;97970.13;5022442;28;20937;-71
2022/12/17 16:12:05;;;;;;;44.97;34.93;;;;;;;-7.03;100.00;97971.88;5030502;28;21030;-71
2022/12/17 16:14:33;;;;;;;43.30;32.80;;;;;;;-7.31;100.00;97976.25;5024283;28;20550;-71
2022/12/17 16:17:01;;;;;;;44.50;32.07;;;;;;;-7.54;100.00;97981.34;5024385;28;20481;-74
2022/12/17 16:19:30;;;;;;;42.80;29.90;;;;;;;-7.58;100.00;97972.88;5023559;28;20451;-73
2022/12/17 16:21:57;;;;;;;36.03;28.57;;;;;;;-7.60;100.00;97972.94;4983105;28;21264;-73
2022/12/17 16:24:25;;;;;;;40.97;30.73;;;;;;;-7.60;100.00;97972.06;5028908;28;20470;-72
2022/12/17 16:26:52;;;;;;;36.00;30.17;;;;;;;-7.70;100.00;97962.09;5027549;28;20461;-74
2022/12/17 16:29:22;;;;;;;32.30;28.07;;;;;;;-7.68;100.00;97969.78;5028799;28;20454;-72
2022/12/17 16:31:49;;;;;;;36.40;28.40;;;;;;;-7.86;100.00;97971.22;5022320;28;20691;-75
2022/12/17 16:34:17;;;;;;;38.87;28.67;;;;;;;-8.19;100.00;97973.97;5029984;28;20462;-73
2022/12/17 16:36:46;;;;;;;35.77;29.93;;;;;;;-8.21;100.00;97974.00;5020917;28;20928;-73
2022/12/17 16:39:16;;;;;;;41.00;32.20;;;;;;;-8.17;100.00;97975.59;4989686;28;20458;-73
2022/12/17 16:41:44;;;;;;;37.30;31.43;;;;;;;-8.18;100.00;97970.50;5018975;28;20446;-72
2022/12/17 16:44:11;;;;;;;44.80;32.50;;;;;;;-8.15;100.00;97981.53;5026405;28;20474;-73
2022/12/17 16:46:41;;;;;;;43.70;31.50;;;;;;;-8.23;100.00;97982.66;5023463;28;20458;-72
2022/12/17 16:49:11;;;;;;;39.93;30.67;;;;;;;-8.33;100.00;97982.09;5023883;28;20668;-73
2022/12/17 16:51:39;;;;;;;40.50;31.53;;;;;;;-8.44;100.00;97988.41;5021563;28;20482;-72
2022/12/17 16:54:12;;;;;;;39.07;31.67;;;;;;;-8.49;100.00;97986.88;4979100;28;20482;-75
2022/12/17 16:56:39;;;;;;;42.80;31.00;;;;;;;-8.49;100.00;97985.16;5022650;28;20454;-73
2022/12/17 16:59:08;;;;;;;40.20;30.57;;;;;;;-8.61;100.00;97988.94;5028316;28;20533;-75
2022/12/17 17:01:37;;;;;;;38.70;31.50;;;;;;;-8.64;100.00;97998.44;5024588;28;20446;-73
2022/12/17 17:04:06;;;;;;;40.30;31.37;;;;;;;-8.70;100.00;97991.78;5027864;28;20576;-74
2022/12/17 17:06:38;;;;;;;33.80;29.40;;;;;;;-8.67;100.00;97998.53;5026088;28;20453;-72
2022/12/17 17:09:06;;;;;;;37.07;29.27;;;;;;;-8.64;100.00;98003.59;4982773;28;20461;-74
2022/12/17 17:11:35;;;;;;;37.80;28.87;;;;;;;-8.63;100.00;97998.44;5025375;28;20509;-72
2022/12/17 17:14:03;;;;;;;37.17;29.80;;;;;;;-8.67;100.00;98003.69;5027235;28;20470;-74
2022/12/17 17:16:32;;;;;;;36.57;30.17;;;;;;;-8.67;100.00;97998.53;5027213;28;20462;-72
2022/12/17 17:19:01;;;;;;;38.17;28.50;;;;;;;-8.67;100.00;98008.81;5026590;28;20457;-74
2022/12/17 17:21:30;;;;;;;60.97;39.33;;;;;;;-8.63;100.00;98005.28;5026260;28;20467;-72
2022/12/17 17:24:00;;;;;;;51.20;39.43;;;;;;;-8.48;100.00;98012.53;5018285;28;21075;-73
2022/12/17 17:26:29;;;;;;;48.67;36.80;;;;;;;-8.48;100.00;98001.38;4985931;28;20453;-72
2022/12/17 17:28:58;;;;;;;35.03;29.70;;;;;;;-8.34;100.00;98013.84;5025943;28;21046;-74
2022/12/17 17:31:27;;;;;;;35.00;30.03;;;;;;;-8.24;100.00;98016.97;5025321;28;21230;-71
2022/12/17 17:34:15;;;;;;;34.43;30.70;;;;;;;-8.18;100.00;98025.34;5026968;28;20780;-74
2022/12/17 17:36:43;;;;;;;39.73;34.20;;;;;;;-8.10;100.00;98025.13;5017269;28;20458;-73
2022/12/17 17:39:10;;;;;;;40.90;35.70;;;;;;;-8.08;100.00;98023.34;5024717;28;20458;-72
2022/12/17 17:41:38;;;;;;;58.90;45.33;;;;;;;-8.03;100.00;98026.59;4978317;28;20458;-72
2022/12/17 17:44:08;;;;;;;45.43;38.33;;;;;;;-8.06;100.00;98034.41;5025770;28;20462;-74
2022/12/17 17:46:36;;;;;;;43.70;36.03;;;;;;;-8.05;100.00;98027.56;5026627;28;20438;-72
2022/12/17 17:49:06;;;;;;;48.77;39.17;;;;;;;-8.06;100.00;98028.44;5024704;28;20453;-74
2022/12/17 17:51:36;;;;;;;49.57;36.93;;;;;;;-8.03;100.00;98028.34;4993415;28;20459;-73
2022/12/17 17:54:24;;;;;;;51.27;40.43;;;;;;;-8.15;100.00;98027.81;4993595;28;20485;-70
2022/12/17 17:56:52;;;;;;;55.40;40.63;;;;;;;-8.24;100.00;98037.56;4957673;28;20480;-70
2022/12/17 17:59:21;;;;;;;52.63;39.17;;;;;;;-8.25;100.00;98036.69;4962540;28;20458;-74
2022/12/17 18:01:59;;;;;;;49.87;37.67;;;;;;;-8.23;100.00;98044.38;5009916;28;20615;-74
2022/12/17 18:04:28;;;;;;;47.07;33.70;;;;;;;-8.27;100.00;98037.66;4999671;28;21368;-75
2022/12/17 18:06:55;;;;;;;37.10;29.93;;;;;;;-8.27;100.00;98045.38;5000956;28;20539;-74
2022/12/17 18:09:43;;;;;;;35.23;27.43;;;;;;;-8.34;100.00;98042.13;5022953;28;20430;-72
2022/12/17 18:14:53;;;;;;;39.40;28.63;;;;;;;-8.39;100.00;98049.13;4972708;28;20752;-73
2022/12/17 18:17:41;;;;;;;50.28;39.10;;;;;;;-8.38;100.00;98058.53;4993427;28;20482;-74
2022/12/17 18:20:10;;;;;;;35.33;29.77;;;;;;;-8.30;100.00;98066.84;4997575;28;20208;-74
2022/12/17 18:22:38;;;;;;;40.20;33.22;;;;;;;-8.35;100.00;98074.69;4973787;28;20488;-70
2022/12/17 18:25:05;;;;;;;32.95;27.63;;;;;;;-8.58;100.00;98076.22;5027167;28;20447;-72
2022/12/17 18:27:33;;;;;;;34.60;28.30;;;;;;;-8.99;100.00;98080.75;5019990;28;20832;-67
2022/12/17 18:30:02;;;;;;;33.28;28.70;;;;;;;-9.08;100.00;98081.84;4973778;28;20458;-68
2022/12/17 18:32:30;;;;;;;35.42;30.10;;;;;;;-9.02;100.00;98084.25;5015198;28;20449;-71
2022/12/17 18:34:57;;;;;;;26.70;23.43;;;;;;;-8.94;100.00;98086.63;4994268;28;20919;-71
2022/12/17 18:37:25;;;;;;;29.23;25.73;;;;;;;-9.03;100.00;98085.13;4965709;28;20923;-71
2022/12/17 18:39:53;;;;;;;46.33;36.30;;;;;;;-9.19;100.00;98102.63;5017779;28;20473;-70
2022/12/17 18:45:15;;;;;;;40.93;34.07;;;;;;;-9.22;100.00;98112.16;4974662;28;20452;-71
2022/12/17 18:47:43;;;;;;;43.83;35.40;;;;;;;-9.32;100.00;98104.66;5024816;28;20505;-70
2022/12/17 18:50:12;;;;;;;52.67;38.50;;;;;;;-9.43;100.00;98100.69;5028632;28;21042;-72
2022/12/17 18:52:39;;;;;;;51.70;41.80;;;;;;;-9.42;100.00;98110.09;4945540;28;20478;-70
2022/12/17 18:55:07;;;;;;;65.53;48.57;;;;;;;-9.55;100.00;98118.03;5029344;28;20449;-71
2022/12/17 18:57:35;;;;;;;58.07;41.80;;;;;;;-9.50;100.00;98120.53;5006573;28;20735;-70
2022/12/17 19:00:03;;;;;;;44.27;36.13;;;;;;;-9.42;100.00;98126.31;4974339;28;20470;-74
2022/12/17 19:02:32;;;;;;;46.00;38.07;;;;;;;-9.42;100.00;98122.91;5022670;28;20446;-72
2022/12/17 19:05:00;;;;;;;41.60;36.23;;;;;;;-9.45;100.00;98131.50;5030245;28;20869;-72
2022/12/17 19:07:27;;;;;;;45.70;34.70;;;;;;;-9.47;100.00;98138.41;4971901;28;20466;-73
2022/12/17 19:09:55;;;;;;;46.77;35.80;;;;;;;-9.67;100.00;98139.69;5009171;28;20453;-75
2022/12/17 19:12:22;;;;;;;47.20;35.27;;;;;;;-9.67;100.00;98141.44;5030145;28;20446;-73
2022/12/17 19:14:50;;;;;;;42.23;32.37;;;;;;;-9.71;100.00;98145.78;4951413;28;20551;-74
2022/12/17 19:17:18;;;;;;;41.50;33.37;;;;;;;-9.67;100.00;98144.00;5020837;28;20470;-73
2022/12/17 19:19:47;;;;;;;46.47;35.03;;;;;;;-9.70;100.00;98147.47;5027278;28;20557;-72
2022/12/17 19:22:14;;;;;;;41.67;31.83;;;;;;;-9.77;100.00;98151.91;5001491;28;20473;-73
2022/12/17 19:24:42;;;;;;;47.37;36.63;;;;;;;-9.83;100.00;98157.16;4978114;28;20919;-73
2022/12/17 19:27:10;;;;;;;40.43;32.87;;;;;;;-9.88;100.00;98157.25;5032037;28;20453;-74
2022/12/17 19:29:37;;;;;;;41.93;31.70;;;;;;;-9.82;100.00;98160.56;5002632;28;20730;-74
2022/12/17 19:32:05;;;;;;;44.17;32.40;;;;;;;-9.90;100.00;98158.16;4978235;28;20776;-75
2022/12/17 19:34:33;;;;;;;44.67;32.10;;;;;;;-10.06;100.00;98162.75;5022068;28;20592;-73
2022/12/17 19:37:03;;;;;;;37.40;31.30;;;;;;;-10.01;100.00;98167.81;4997337;28;20470;-71
2022/12/17 19:39:31;;;;;;;40.07;32.57;;;;;;;-10.09;100.00;98170.50;4998475;28;20450;-71
2022/12/17 19:41:58;;;;;;;55.60;38.23;;;;;;;-10.18;100.00;98174.97;5021604;28;21055;-73
2022/12/17 19:44:26;;;;;;;59.13;37.53;;;;;;;-10.20;100.00;98165.63;5011552;28;20454;-74
2022/12/17 19:46:54;;;;;;;65.07;41.40;;;;;;;-10.14;100.00;98177.47;4967180;28;20992;-72
2022/12/17 19:49:22;;;;;;;72.00;41.97;;;;;;;-10.23;100.00;98179.34;4992374;28;20915;-73
2022/12/17 19:51:50;;;;;;;64.63;41.47;;;;;;;-10.17;100.00;98181.78;5026187;28;20450;-71
2022/12/17 19:54:19;;;;;;;72.77;41.90;;;;;;;-10.16;100.00;98169.81;4982782;28;20481;-73
2022/12/17 19:56:47;;;;;;;67.80;44.53;;;;;;;-10.24;100.00;98177.66;5014574;28;20490;-74
2022/12/17 19:59:15;;;;;;;58.43;40.80;;;;;;;-10.32;100.00;98176.97;5021353;28;20757;-74
2022/12/17 20:01:44;;;;;;;55.43;38.70;;;;;;;-10.30;100.00;98172.66;4943804;28;22366;-71
2022/12/17 20:04:13;;;;;;;49.93;35.10;;;;;;;-10.29;100.00;98182.03;5022065;28;20477;-72
2022/12/17 20:06:41;;;;;;;47.60;34.93;;;;;;;-10.28;100.00;98183.72;4935603;28;21030;-74
2022/12/17 20:09:08;;;;;;;57.03;39.23;;;;;;;-10.27;100.00;98185.41;4994678;28;20472;-72
2022/12/17 20:11:37;;;;;;;46.60;30.80;;;;;;;-10.28;100.00;98181.16;5029670;28;20442;-73
2022/12/17 20:14:08;;;;;;;45.00;33.03;;;;;;;-10.22;100.00;98193.00;4997816;28;20556;-72
2022/12/17 20:16:37;;;;;;;50.20;33.20;;;;;;;-10.00;100.00;98187.44;5024505;28;20461;-72
2022/12/17 20:19:07;;;;;;;43.83;31.07;;;;;;;-9.97;100.00;98190.78;4986731;28;20912;-72
2022/12/17 20:21:34;;;;;;;38.90;31.10;;;;;;;-9.88;100.00;98185.47;4974788;28;20912;-73
2022/12/17 20:24:02;;;;;;;44.90;29.67;;;;;;;-9.80;100.00;98197.28;5023951;28;20470;-72
2022/12/17 20:26:30;;;;;;;43.13;32.00;;;;;;;-9.78;100.00;98193.81;5028957;28;20609;-72
2022/12/17 20:28:59;;;;;;;45.13;30.03;;;;;;;-9.68;100.00;98191.06;5000976;28;20829;-73
2022/12/17 20:31:27;;;;;;;39.10;28.43;;;;;;;-9.68;100.00;98199.56;5025428;28;20471;-73
2022/12/17 20:33:55;;;;;;;35.10;27.80;;;;;;;-9.56;100.00;98203.59;5023550;28;20747;-73
2022/12/17 20:36:23;;;;;;;37.27;26.53;;;;;;;-9.85;100.00;98197.38;5027438;28;20661;-73
2022/12/17 20:38:50;;;;;;;38.80;28.87;;;;;;;-9.76;100.00;98189.50;4968797;28;20462;-72
2022/12/17 20:41:19;;;;;;;40.50;28.00;;;;;;;-9.44;100.00;98197.38;5026676;28;20457;-73
2022/12/17 20:43:48;;;;;;;36.70;28.27;;;;;;;-9.46;100.00;98194.00;4997114;28;20471;-72
2022/12/17 20:46:18;;;;;;;40.33;27.33;;;;;;;-9.24;100.00;98183.25;5024742;28;20467;-74
2022/12/17 20:48:46;;;;;;;39.50;28.13;;;;;;;-9.10;100.00;98194.00;5023487;28;20815;-74
2022/12/17 20:51:16;;;;;;;39.37;27.43;;;;;;;-9.10;100.00;98186.31;5023652;28;20913;-74
2022/12/17 20:53:44;;;;;;;30.50;23.67;;;;;;;-8.93;100.00;98198.75;4969586;28;20978;-73
2022/12/17 20:56:14;;;;;;;37.30;25.23;;;;;;;-8.70;100.00;98199.91;5028746;28;20437;-73
2022/12/17 20:58:43;;;;;;;36.63;24.57;;;;;;;-8.56;100.00;98193.56;4998346;28;20454;-73
2022/12/17 21:01:12;;;;;;;34.67;24.10;;;;;;;-8.48;100.00;98187.31;5022585;28;20454;-74
2022/12/17 21:03:42;;;;;;;39.93;25.57;;;;;;;-8.41;100.00;98200.00;5026299;28;20469;-72
2022/12/17 21:06:13;;;;;;;41.70;27.10;;;;;;;-8.49;100.00;98205.38;5029747;28;20442;-72
2022/12/17 21:08:42;;;;;;;38.80;26.93;;;;;;;-8.34;100.00;98201.53;4984833;28;20458;-73
2022/12/17 21:11:16;;;;;;;46.67;31.67;;;;;;;-8.39;100.00;98211.09;5045873;28;20540;-73
2022/12/17 21:13:44;;;;;;;50.50;32.97;;;;;;;-8.26;100.00;98217.56;5015857;28;20581;-73
2022/12/17 21:16:15;;;;;;;43.73;30.27;;;;;;;-8.13;100.00;98212.94;5016960;28;20620;-72
2022/12/17 21:18:44;;;;;;;49.93;30.30;;;;;;;-8.02;100.00;98216.06;5026414;28;20446;-73
2022/12/17 21:21:15;;;;;;;50.13;30.10;;;;;;;-7.93;100.00;98214.13;5025916;28;20450;-73
2022/12/17 21:23:44;;;;;;;61.47;34.07;;;;;;;-7.94;100.00;98210.72;4965997;28;20489;-72
2022/12/17 21:26:13;;;;;;;54.70;31.13;;;;;;;-7.87;100.00;98216.53;5024370;28;20457;-72
2022/12/17 21:28:43;;;;;;;54.20;31.23;;;;;;;-7.86;100.00;98211.31;5016361;28;20448;-73
2022/12/17 21:31:16;;;;;;;51.07;31.03;;;;;;;-7.71;100.00;98222.91;5017496;28;20454;-71
2022/12/17 21:33:46;;;;;;;52.17;32.00;;;;;;;-7.65;100.00;98215.91;5027824;28;20496;-73
2022/12/17 21:36:15;;;;;;;50.83;31.73;;;;;;;-7.70;100.00;98219.47;5025749;28;20458;-73
2022/12/17 21:38:43;;;;;;;56.33;33.80;;;;;;;-7.67;100.00;98231.41;4969376;28;20703;-73
2022/12/17 21:41:12;;;;;;;58.27;32.47;;;;;;;-7.54;100.00;98219.03;5021354;28;20963;-72
2022/12/17 21:43:41;;;;;;;61.97;37.03;;;;;;;-7.46;100.00;98218.78;5026086;28;20482;-73
2022/12/17 21:46:10;;;;;;;56.23;35.07;;;;;;;-7.49;100.00;98224.88;4996586;28;20715;-73
2022/12/17 21:48:39;;;;;;;56.97;33.47;;;;;;;-7.36;100.00;98230.50;5025998;28;20446;-73
2022/12/17 21:51:12;;;;;;;59.83;35.13;;;;;;;-7.32;100.00;98234.66;5025565;28;20710;-72
2022/12/17 21:53:42;;;;;;;54.40;34.77;;;;;;;-7.22;100.00;98239.53;5000037;28;20539;-72
2022/12/17 21:56:11;;;;;;;55.27;33.50;;;;;;;-7.21;100.00;98238.66;5009817;28;20489;-73
2022/12/17 21:58:40;;;;;;;60.37;34.70;;;;;;;-7.16;100.00;98234.19;5028380;28;20442;-73
2022/12/17 22:01:10;;;;;;;55.77;31.83;;;;;;;-7.15;100.00;98236.72;5001107;28;20556;-73
2022/12/17 22:03:46;;;;;;;49.30;31.97;;;;;;;-7.12;100.00;98230.63;5023273;28;20461;-72
2022/12/17 22:06:23;;;;;;;56.37;31.30;;;;;;;-7.08;100.00;98237.38;5025777;28;20460;-72
2022/12/17 22:09:02;;;;;;;51.33;32.17;;;;;;;-7.05;100.00;98242.41;5022013;28;20750;-72
2022/12/17 22:11:44;;;;;;;49.27;31.70;;;;;;;-6.92;100.00;98240.31;4975059;28;20446;-73
2022/12/17 22:14:11;;;;;;;59.77;35.30;;;;;;;-6.84;100.00;98240.06;4932781;28;20477;-73
2022/12/17 22:16:48;;;;;;;60.20;36.73;;;;;;;-6.81;100.00;98247.69;5025403;28;20492;-73
2022/12/17 22:19:18;;;;;;;58.27;33.53;;;;;;;-6.82;100.00;98256.31;5000315;28;20459;-71
2022/12/17 22:21:51;;;;;;;54.37;33.57;;;;;;;-6.80;100.00;98251.13;5021051;28;20492;-73
2022/12/17 22:24:24;;;;;;;54.33;29.47;;;;;;;-6.85;100.00;98256.44;5030132;28;20567;-74
2022/12/17 22:26:58;;;;;;;59.37;32.63;;;;;;;-6.96;100.00;98261.91;5000935;28;20449;-73
2022/12/17 22:34:58;;;;;;;52.27;30.53;;;;;;;-6.84;100.00;98256.34;5001094;28;20986;-71
2022/12/17 22:37:47;;;;;;;52.33;30.43;;;;;;;-6.87;100.00;98255.63;5029010;28;20448;-72
2022/12/17 22:40:37;;;;;;;49.43;28.37;;;;;;;-7.00;100.00;98260.31;5005406;28;20472;-72
2022/12/17 22:43:29;;;;;;;46.53;27.97;;;;;;;-6.77;100.00;98279.38;4987138;28;21000;-73
2022/12/17 22:46:18;;;;;;;52.90;31.33;;;;;;;-6.88;100.00;98277.97;5023346;28;20459;-73
2022/12/17 22:48:46;;;;;;;52.77;32.47;;;;;;;-6.90;100.00;98279.75;5031938;28;20730;-72
2022/12/17 22:51:14;;;;;;;43.63;29.83;;;;;;;-6.98;100.00;98285.16;5001079;28;20552;-72
2022/12/17 22:54:02;;;;;;;48.00;29.67;;;;;;;-7.11;100.00;98278.69;5025181;28;20459;-72
2022/12/17 22:56:30;;;;;;;42.50;26.70;;;;;;;-7.17;100.00;98279.72;5000336;28;20484;-70
2022/12/17 22:59:18;;;;;;;40.77;28.00;;;;;;;-7.24;100.00;98274.78;5004233;28;20496;-72
2022/12/17 23:01:46;;;;;;;35.97;27.20;;;;;;;-7.34;100.00;98275.06;5003656;28;20480;-73
2022/12/17 23:04:15;;;;;;;39.00;27.07;;;;;;;-7.37;100.00;98282.03;5022444;28;20552;-71
2022/12/17 23:06:44;;;;;;;44.57;28.37;;;;;;;-7.46;100.00;98278.84;5013599;28;20712;-72
2022/12/17 23:09:17;;;;;;;37.63;27.60;;;;;;;-7.44;100.00;98282.22;5029100;28;20590;-72
2022/12/17 23:11:46;;;;;;;32.13;25.53;;;;;;;-7.38;100.00;98290.66;5028170;28;20969;-72
2022/12/17 23:14:14;;;;;;;36.13;25.80;;;;;;;-7.46;100.00;98285.72;4999223;28;20833;-72
2022/12/17 23:16:42;;;;;;;44.20;28.27;;;;;;;-7.48;100.00;98272.91;4972921;28;20493;-72
2022/12/17 23:19:10;;;;;;;44.60;28.80;;;;;;;-7.47;100.00;98274.59;5025992;28;20450;-72
2022/12/17 23:21:38;;;;;;;36.90;27.77;;;;;;;-7.46;100.00;98275.41;5001993;28;20466;-71
2022/12/17 23:24:06;;;;;;;47.10;30.43;;;;;;;-7.60;100.00;98279.25;5027168;28;20473;-71
2022/12/17 23:26:37;;;;;;;55.63;31.30;;;;;;;-7.57;100.00;98286.88;5029212;28;20545;-74
2022/12/17 23:29:07;;;;;;;42.53;27.00;;;;;;;-7.55;100.00;98276.53;5000064;28;20545;-73
2022/12/17 23:31:37;;;;;;;43.43;26.80;;;;;;;-7.58;100.00;98286.91;4970682;28;21193;-72
2022/12/17 23:34:05;;;;;;;43.50;26.50;;;;;;;-7.61;100.00;98282.69;5030207;28;21062;-72
2022/12/17 23:36:33;;;;;;;41.20;27.97;;;;;;;-7.73;100.00;98281.31;4998728;28;20728;-72
2022/12/17 23:39:01;;;;;;;41.70;26.83;;;;;;;-7.74;100.00;98279.63;5031500;28;20824;-73
2022/12/17 23:41:30;;;;;;;42.93;25.30;;;;;;;-7.66;100.00;98289.72;5024075;28;21043;-72
2022/12/17 23:43:59;;;;;;;39.83;26.83;;;;;;;-7.60;100.00;98284.38;5001954;28;20485;-72
2022/12/17 23:46:28;;;;;;;37.27;25.20;;;;;;;-7.62;100.00;98280.16;5024342;28;20998;-72
2022/12/17 23:48:56;;;;;;;58.50;33.43;;;;;;;-7.59;100.00;98288.66;4970831;28;20861;-71
2022/12/17 23:51:25;;;;;;;51.00;32.47;;;;;;;-7.61;100.00;98280.13;5002511;28;20484;-72
2022/12/17 23:53:53;;;;;;;50.53;28.53;;;;;;;-7.63;100.00;98279.34;5025261;28;21009;-71
2022/12/17 23:56:22;;;;;;;47.90;27.90;;;;;;;-7.56;100.00;98280.00;5027849;28;20734;-72
2022/12/17 23:58:52;;;;;;;43.07;26.70;;;;;;;-7.61;100.00;98281.84;5001597;28;20454;-72
